sensor_id;sensor_type;location;lat;lon;timestamp;temperature;humidity
2202;DHT22;1107;48.654;9.250;2023-03-21T00:01:43;9.70;93.50
2202;DHT22;1107;48.654;9.250;2023-03-21T00:04:12;9.80;57.60
2202;DHT22;1107;48.654;9.250;2023-03-21T00:06:39;9.80;53.10
2202;DHT22;1107;48.654;9.250;2023-03-21T00:09:06;9.80;33.30
2202;DHT22;1107;48.654;9.250;2023-03-21T00:11:33;9.80;26.10
2202;DHT22;1107;48.654;9.250;2023-03-21T00:14:00;9.80;16.80
2202;DHT22;1107;48.654;9.250;2023-03-21T00:16:28;9.70;22.00
2202;DHT22;1107;48.654;9.250;2023-03-21T00:18:56;9.70;51.70
2202;DHT22;1107;48.654;9.250;2023-03-21T00:21:24;9.70;83.00
2202;DHT22;1107;48.654;9.250;2023-03-21T00:23:57;9.80;79.60
2202;DHT22;1107;48.654;9.250;2023-03-21T00:26:24;9.80;48.40
2202;DHT22;1107;48.654;9.250;2023-03-21T00:28:51;9.80;35.50
2202;DHT22;1107;48.654;9.250;2023-03-21T00:31:18;9.80;60.10
2202;DHT22;1107;48.654;9.250;2023-03-21T00:33:45;9.80;25.10
2202;DHT22;1107;48.654;9.250;2023-03-21T00:36:12;9.80;27.20
2202;DHT22;1107;48.654;9.250;2023-03-21T00:38:42;9.80;30.00
2202;DHT22;1107;48.654;9.250;2023-03-21T00:41:11;9.80;96.30
2202;DHT22;1107;48.654;9.250;2023-03-21T00:43:39;9.80;99.90
2202;DHT22;1107;48.654;9.250;2023-03-21T00:46:06;9.70;99.90
2202;DHT22;1107;48.654;9.250;2023-03-21T00:48:33;9.60;99.90
2202;DHT22;1107;48.654;9.250;2023-03-21T00:51:00;9.60;99.90
2202;DHT22;1107;48.654;9.250;2023-03-21T00:53:27;9.60;99.90
2202;DHT22;1107;48.654;9.250;2023-03-21T00:55:56;9.50;99.90
2202;DHT22;1107;48.654;9.250;2023-03-21T00:58:23;9.50;99.90
2202;DHT22;1107;48.654;9.250;2023-03-21T01:00:50;9.40;99.90
2202;DHT22;1107;48.654;9.250;2023-03-21T01:03:17;9.40;99.90
2202;DHT22;1107;48.654;9.250;2023-03-21T01:05:46;9.40;99.90
2202;DHT22;1107;48.654;9.250;2023-03-21T01:08:33;9.40;99.90
2202;DHT22;1107;48.654;9.250;2023-03-21T01:11:04;9.40;99.90
2202;DHT22;1107;48.654;9.250;2023-03-21T01:13:32;9.40;99.90
2202;DHT22;1107;48.654;9.250;2023-03-21T01:15:59;9.40;99.90
2202;DHT22;1107;48.654;9.250;2023-03-21T01:18:28;9.30;99.90
2202;DHT22;1107;48.654;9.250;2023-03-21T01:20:56;9.30;99.90
2202;DHT22;1107;48.654;9.250;2023-03-21T01:23:24;9.30;1.00
2202;DHT22;1107;48.654;9.250;2023-03-21T01:25:53;9.30;1.00
2202;DHT22;1107;48.654;9.250;2023-03-21T01:28:25;9.20;1.00
2202;DHT22;1107;48.654;9.250;2023-03-21T01:30:52;9.30;1.00
2202;DHT22;1107;48.654;9.250;2023-03-21T01:33:20;9.30;1.00
2202;DHT22;1107;48.654;9.250;2023-03-21T01:35:47;9.20;1.00
2202;DHT22;1107;48.654;9.250;2023-03-21T01:38:14;9.20;1.00
2202;DHT22;1107;48.654;9.250;2023-03-21T01:40:43;9.20;1.00
2202;DHT22;1107;48.654;9.250;2023-03-21T01:43:20;9.20;1.00
2202;DHT22;1107;48.654;9.250;2023-03-21T01:48:50;9.10;1.00
2202;DHT22;1107;48.654;9.250;2023-03-21T01:51:19;9.10;1.00
2202;DHT22;1107;48.654;9.250;2023-03-21T01:53:47;9.10;1.00
2202;DHT22;1107;48.654;9.250;2023-03-21T01:56:18;9.10;1.00
2202;DHT22;1107;48.654;9.250;2023-03-21T01:58:48;9.10;1.00
2202;DHT22;1107;48.654;9.250;2023-03-21T02:01:16;9.10;1.00
2202;DHT22;1107;48.654;9.250;2023-03-21T02:03:49;9.10;1.00
2202;DHT22;1107;48.654;9.250;2023-03-21T02:06:23;9.10;1.00
2202;DHT22;1107;48.654;9.250;2023-03-21T02:08:59;9.20;1.00
2202;DHT22;1107;48.654;9.250;2023-03-21T02:11:29;9.20;1.00
2202;DHT22;1107;48.654;9.250;2023-03-21T02:13:57;9.10;1.00
2202;DHT22;1107;48.654;9.250;2023-03-21T02:16:31;9.20;1.00
2202;DHT22;1107;48.654;9.250;2023-03-21T02:19:18;9.20;1.00
2202;DHT22;1107;48.654;9.250;2023-03-21T02:25:07;9.20;1.00
2202;DHT22;1107;48.654;9.250;2023-03-21T02:27:45;9.20;1.00
2202;DHT22;1107;48.654;9.250;2023-03-21T02:36:24;9.00;1.00
2202;DHT22;1107;48.654;9.250;2023-03-21T02:39:00;9.00;1.00
2202;DHT22;1107;48.654;9.250;2023-03-21T02:41:38;9.00;1.00
2202;DHT22;1107;48.654;9.250;2023-03-21T02:44:11;9.10;1.00
2202;DHT22;1107;48.654;9.250;2023-03-21T02:46:43;9.10;1.00
2202;DHT22;1107;48.654;9.250;2023-03-21T02:49:17;9.10;1.00
2202;DHT22;1107;48.654;9.250;2023-03-21T02:51:48;9.20;1.00
2202;DHT22;1107;48.654;9.250;2023-03-21T02:54:20;9.20;1.00
2202;DHT22;1107;48.654;9.250;2023-03-21T02:56:49;9.20;1.00
2202;DHT22;1107;48.654;9.250;2023-03-21T02:59:18;9.20;1.00
2202;DHT22;1107;48.654;9.250;2023-03-21T03:01:46;9.20;1.00
2202;DHT22;1107;48.654;9.250;2023-03-21T03:04:18;9.20;1.00
2202;DHT22;1107;48.654;9.250;2023-03-21T03:07:02;9.20;1.00
2202;DHT22;1107;48.654;9.250;2023-03-21T03:09:42;9.10;1.00
2202;DHT22;1107;48.654;9.250;2023-03-21T03:12:20;9.10;1.00
2202;DHT22;1107;48.654;9.250;2023-03-21T03:14:59;9.20;1.00
2202;DHT22;1107;48.654;9.250;2023-03-21T03:17:39;9.10;1.00
2202;DHT22;1107;48.654;9.250;2023-03-21T03:20:23;9.10;1.00
2202;DHT22;1107;48.654;9.250;2023-03-21T03:23:00;9.10;1.00
2202;DHT22;1107;48.654;9.250;2023-03-21T03:25:36;9.10;1.00
2202;DHT22;1107;48.654;9.250;2023-03-21T03:28:06;9.00;1.00
2202;DHT22;1107;48.654;9.250;2023-03-21T03:30:35;9.00;1.00
2202;DHT22;1107;48.654;9.250;2023-03-21T03:33:04;9.00;1.00
2202;DHT22;1107;48.654;9.250;2023-03-21T03:35:32;9.00;1.00
2202;DHT22;1107;48.654;9.250;2023-03-21T03:38:01;9.00;1.00
2202;DHT22;1107;48.654;9.250;2023-03-21T03:40:36;9.10;1.00
2202;DHT22;1107;48.654;9.250;2023-03-21T03:43:09;9.10;1.00
2202;DHT22;1107;48.654;9.250;2023-03-21T03:45:42;9.10;1.00
2202;DHT22;1107;48.654;9.250;2023-03-21T03:48:15;9.10;1.00
2202;DHT22;1107;48.654;9.250;2023-03-21T03:50:47;9.10;1.00
2202;DHT22;1107;48.654;9.250;2023-03-21T03:53:19;9.10;1.00
2202;DHT22;1107;48.654;9.250;2023-03-21T03:55:50;9.10;1.00
2202;DHT22;1107;48.654;9.250;2023-03-21T03:58:19;9.10;1.00
2202;DHT22;1107;48.654;9.250;2023-03-21T04:00:47;9.00;1.00
2202;DHT22;1107;48.654;9.250;2023-03-21T04:03:14;9.00;1.00
2202;DHT22;1107;48.654;9.250;2023-03-21T04:05:41;9.00;1.00
2202;DHT22;1107;48.654;9.250;2023-03-21T04:08:11;9.00;1.00
2202;DHT22;1107;48.654;9.250;2023-03-21T04:10:38;9.00;1.00
2202;DHT22;1107;48.654;9.250;2023-03-21T04:13:06;8.90;1.00
2202;DHT22;1107;48.654;9.250;2023-03-21T04:15:33;9.00;1.00
2202;DHT22;1107;48.654;9.250;2023-03-21T04:18:00;8.90;1.00
2202;DHT22;1107;48.654;9.250;2023-03-21T04:20:28;8.80;1.00
2202;DHT22;1107;48.654;9.250;2023-03-21T04:22:55;8.80;99.10
2202;DHT22;1107;48.654;9.250;2023-03-21T04:25:22;8.80;99.90
2202;DHT22;1107;48.654;9.250;2023-03-21T04:27:49;8.80;99.90
2202;DHT22;1107;48.654;9.250;2023-03-21T04:30:18;8.80;99.90
2202;DHT22;1107;48.654;9.250;2023-03-21T04:32:46;8.70;99.90
2202;DHT22;1107;48.654;9.250;2023-03-21T04:35:19;8.70;1.00
2202;DHT22;1107;48.654;9.250;2023-03-21T04:37:46;8.70;1.00
2202;DHT22;1107;48.654;9.250;2023-03-21T04:40:13;8.60;1.00
2202;DHT22;1107;48.654;9.250;2023-03-21T04:42:42;8.60;1.00
2202;DHT22;1107;48.654;9.250;2023-03-21T04:45:10;8.60;1.00
2202;DHT22;1107;48.654;9.250;2023-03-21T04:47:38;8.50;99.90
2202;DHT22;1107;48.654;9.250;2023-03-21T04:50:06;8.50;99.90
2202;DHT22;1107;48.654;9.250;2023-03-21T04:52:33;8.40;99.90
2202;DHT22;1107;48.654;9.250;2023-03-21T04:55:00;8.40;99.90
2202;DHT22;1107;48.654;9.250;2023-03-21T04:57:27;8.30;1.00
2202;DHT22;1107;48.654;9.250;2023-03-21T04:59:54;8.30;1.00
2202;DHT22;1107;48.654;9.250;2023-03-21T05:02:21;8.30;1.00
2202;DHT22;1107;48.654;9.250;2023-03-21T05:04:49;8.30;1.00
2202;DHT22;1107;48.654;9.250;2023-03-21T05:07:16;8.30;1.00
2202;DHT22;1107;48.654;9.250;2023-03-21T05:09:43;8.20;1.00
2202;DHT22;1107;48.654;9.250;2023-03-21T05:12:10;8.20;3.40
2202;DHT22;1107;48.654;9.250;2023-03-21T05:14:37;8.20;99.90
2202;DHT22;1107;48.654;9.250;2023-03-21T05:17:04;8.20;99.90
2202;DHT22;1107;48.654;9.250;2023-03-21T05:19:31;8.20;1.00
2202;DHT22;1107;48.654;9.250;2023-03-21T05:22:03;8.20;1.00
2202;DHT22;1107;48.654;9.250;2023-03-21T05:24:31;8.20;1.00
2202;DHT22;1107;48.654;9.250;2023-03-21T05:26:58;8.10;1.00
2202;DHT22;1107;48.654;9.250;2023-03-21T05:29:28;8.10;1.00
2202;DHT22;1107;48.654;9.250;2023-03-21T05:31:55;8.10;1.00
2202;DHT22;1107;48.654;9.250;2023-03-21T05:34:23;8.10;1.00
2202;DHT22;1107;48.654;9.250;2023-03-21T05:36:51;8.10;1.00
2202;DHT22;1107;48.654;9.250;2023-03-21T05:39:19;8.00;99.90
2202;DHT22;1107;48.654;9.250;2023-03-21T05:41:46;8.00;1.00
2202;DHT22;1107;48.654;9.250;2023-03-21T05:44:13;8.00;99.90
2202;DHT22;1107;48.654;9.250;2023-03-21T05:46:41;8.10;1.00
2202;DHT22;1107;48.654;9.250;2023-03-21T05:49:09;8.10;99.90
2202;DHT22;1107;48.654;9.250;2023-03-21T05:51:36;8.10;99.90
2202;DHT22;1107;48.654;9.250;2023-03-21T05:54:04;8.20;1.00
2202;DHT22;1107;48.654;9.250;2023-03-21T05:56:32;8.30;1.00
2202;DHT22;1107;48.654;9.250;2023-03-21T05:58:59;8.30;99.90
2202;DHT22;1107;48.654;9.250;2023-03-21T06:01:26;8.30;1.00
2202;DHT22;1107;48.654;9.250;2023-03-21T06:03:53;8.40;99.90
2202;DHT22;1107;48.654;9.250;2023-03-21T06:06:20;8.40;56.60
2202;DHT22;1107;48.654;9.250;2023-03-21T06:08:47;8.50;57.60
2202;DHT22;1107;48.654;9.250;2023-03-21T06:11:22;8.40;1.00
2202;DHT22;1107;48.654;9.250;2023-03-21T06:13:51;8.40;94.20
2202;DHT22;1107;48.654;9.250;2023-03-21T06:16:18;8.40;99.90
2202;DHT22;1107;48.654;9.250;2023-03-21T06:18:45;8.50;1.00
2202;DHT22;1107;48.654;9.250;2023-03-21T06:21:12;8.50;1.00
2202;DHT22;1107;48.654;9.250;2023-03-21T06:23:39;8.40;1.00
2202;DHT22;1107;48.654;9.250;2023-03-21T06:26:06;8.50;1.00
2202;DHT22;1107;48.654;9.250;2023-03-21T06:28:33;8.50;99.90
2202;DHT22;1107;48.654;9.250;2023-03-21T06:31:02;8.60;99.90
2202;DHT22;1107;48.654;9.250;2023-03-21T06:33:29;8.50;29.80
2202;DHT22;1107;48.654;9.250;2023-03-21T06:35:57;8.60;99.90
2202;DHT22;1107;48.654;9.250;2023-03-21T06:38:24;8.60;36.40
2202;DHT22;1107;48.654;9.250;2023-03-21T06:40:51;8.70;1.00
2202;DHT22;1107;48.654;9.250;2023-03-21T06:43:18;8.80;1.00
2202;DHT22;1107;48.654;9.250;2023-03-21T06:45:45;8.80;1.00
2202;DHT22;1107;48.654;9.250;2023-03-21T06:48:14;8.90;99.90
2202;DHT22;1107;48.654;9.250;2023-03-21T06:50:41;8.90;99.90
2202;DHT22;1107;48.654;9.250;2023-03-21T06:53:08;9.00;99.90
2202;DHT22;1107;48.654;9.250;2023-03-21T06:55:35;9.10;99.90
2202;DHT22;1107;48.654;9.250;2023-03-21T06:58:02;9.10;83.40
2202;DHT22;1107;48.654;9.250;2023-03-21T07:00:29;9.40;29.10
2202;DHT22;1107;48.654;9.250;2023-03-21T07:02:57;9.60;1.00
2202;DHT22;1107;48.654;9.250;2023-03-21T07:05:26;10.00;1.00
2202;DHT22;1107;48.654;9.250;2023-03-21T07:07:53;10.20;99.90
2202;DHT22;1107;48.654;9.250;2023-03-21T07:10:20;10.60;99.90
2202;DHT22;1107;48.654;9.250;2023-03-21T07:12:47;11.40;1.00
2202;DHT22;1107;48.654;9.250;2023-03-21T07:15:14;12.10;1.00
2202;DHT22;1107;48.654;9.250;2023-03-21T07:17:40;12.60;1.00
2202;DHT22;1107;48.654;9.250;2023-03-21T07:20:09;13.20;1.00
2202;DHT22;1107;48.654;9.250;2023-03-21T07:22:38;13.50;1.00
2202;DHT22;1107;48.654;9.250;2023-03-21T07:25:07;13.80;99.90
2202;DHT22;1107;48.654;9.250;2023-03-21T07:27:34;13.80;99.90
2202;DHT22;1107;48.654;9.250;2023-03-21T07:30:01;13.60;99.90
2202;DHT22;1107;48.654;9.250;2023-03-21T07:32:31;13.60;99.90
2202;DHT22;1107;48.654;9.250;2023-03-21T07:34:59;13.70;99.90
2202;DHT22;1107;48.654;9.250;2023-03-21T07:37:26;13.90;99.90
2202;DHT22;1107;48.654;9.250;2023-03-21T07:39:54;14.30;99.90
2202;DHT22;1107;48.654;9.250;2023-03-21T07:42:21;14.20;99.90
2202;DHT22;1107;48.654;9.250;2023-03-21T07:44:48;14.40;99.90
2202;DHT22;1107;48.654;9.250;2023-03-21T07:47:17;14.60;99.90
2202;DHT22;1107;48.654;9.250;2023-03-21T07:49:44;14.60;99.90
2202;DHT22;1107;48.654;9.250;2023-03-21T07:52:11;14.50;99.90
2202;DHT22;1107;48.654;9.250;2023-03-21T07:54:38;14.90;99.90
2202;DHT22;1107;48.654;9.250;2023-03-21T07:57:06;15.40;99.90
2202;DHT22;1107;48.654;9.250;2023-03-21T07:59:33;15.80;99.90
2202;DHT22;1107;48.654;9.250;2023-03-21T08:02:00;16.00;99.90
2202;DHT22;1107;48.654;9.250;2023-03-21T08:04:27;16.20;99.90
2202;DHT22;1107;48.654;9.250;2023-03-21T08:06:54;16.40;99.90
2202;DHT22;1107;48.654;9.250;2023-03-21T08:09:21;16.90;99.90
2202;DHT22;1107;48.654;9.250;2023-03-21T08:11:48;17.10;99.90
2202;DHT22;1107;48.654;9.250;2023-03-21T08:14:17;17.30;99.90
2202;DHT22;1107;48.654;9.250;2023-03-21T08:16:44;17.70;99.90
2202;DHT22;1107;48.654;9.250;2023-03-21T08:19:10;18.60;99.90
2202;DHT22;1107;48.654;9.250;2023-03-21T08:21:37;18.50;99.90
2202;DHT22;1107;48.654;9.250;2023-03-21T08:24:05;18.40;99.90
2202;DHT22;1107;48.654;9.250;2023-03-21T08:26:33;17.30;99.90
2202;DHT22;1107;48.654;9.250;2023-03-21T08:29:00;17.20;99.90
2202;DHT22;1107;48.654;9.250;2023-03-21T08:31:28;17.50;99.90
2202;DHT22;1107;48.654;9.250;2023-03-21T08:33:55;17.70;99.90
2202;DHT22;1107;48.654;9.250;2023-03-21T08:36:22;18.60;99.90
2202;DHT22;1107;48.654;9.250;2023-03-21T08:38:49;19.50;99.90
2202;DHT22;1107;48.654;9.250;2023-03-21T08:41:20;19.90;99.90
2202;DHT22;1107;48.654;9.250;2023-03-21T08:43:49;19.10;99.90
2202;DHT22;1107;48.654;9.250;2023-03-21T08:46:15;18.50;99.90
2202;DHT22;1107;48.654;9.250;2023-03-21T08:48:44;18.90;99.90
2202;DHT22;1107;48.654;9.250;2023-03-21T08:51:11;19.50;99.90
2202;DHT22;1107;48.654;9.250;2023-03-21T08:53:38;19.60;99.90
2202;DHT22;1107;48.654;9.250;2023-03-21T08:56:06;19.20;99.90
2202;DHT22;1107;48.654;9.250;2023-03-21T08:58:33;19.40;99.90
2202;DHT22;1107;48.654;9.250;2023-03-21T09:01:01;20.20;99.90
2202;DHT22;1107;48.654;9.250;2023-03-21T09:03:28;21.20;99.90
2202;DHT22;1107;48.654;9.250;2023-03-21T09:05:56;21.80;99.90
2202;DHT22;1107;48.654;9.250;2023-03-21T09:08:23;21.90;99.90
2202;DHT22;1107;48.654;9.250;2023-03-21T09:10:52;22.50;99.90
2202;DHT22;1107;48.654;9.250;2023-03-21T09:13:19;22.80;99.90
2202;DHT22;1107;48.654;9.250;2023-03-21T09:15:46;22.50;99.90
2202;DHT22;1107;48.654;9.250;2023-03-21T09:18:13;22.30;99.90
2202;DHT22;1107;48.654;9.250;2023-03-21T09:20:44;21.60;99.90
2202;DHT22;1107;48.654;9.250;2023-03-21T09:23:13;22.30;99.90
2202;DHT22;1107;48.654;9.250;2023-03-21T09:25:40;22.60;99.90
2202;DHT22;1107;48.654;9.250;2023-03-21T09:28:08;21.50;99.90
2202;DHT22;1107;48.654;9.250;2023-03-21T09:30:35;21.30;96.10
2202;DHT22;1107;48.654;9.250;2023-03-21T09:33:04;21.50;95.20
2202;DHT22;1107;48.654;9.250;2023-03-21T09:35:37;20.90;93.60
2202;DHT22;1107;48.654;9.250;2023-03-21T09:38:05;21.30;94.80
2202;DHT22;1107;48.654;9.250;2023-03-21T09:40:50;21.50;95.10
2202;DHT22;1107;48.654;9.250;2023-03-21T09:43:33;21.80;94.30
2202;DHT22;1107;48.654;9.250;2023-03-21T09:46:07;21.40;90.30
2202;DHT22;1107;48.654;9.250;2023-03-21T09:48:40;21.10;85.20
2202;DHT22;1107;48.654;9.250;2023-03-21T09:51:12;20.80;83.00
2202;DHT22;1107;48.654;9.250;2023-03-21T09:53:44;20.90;84.60
2202;DHT22;1107;48.654;9.250;2023-03-21T09:56:14;21.20;87.70
2202;DHT22;1107;48.654;9.250;2023-03-21T09:58:43;22.20;91.90
2202;DHT22;1107;48.654;9.250;2023-03-21T10:01:14;23.60;95.50
2202;DHT22;1107;48.654;9.250;2023-03-21T10:03:47;23.50;91.80
2202;DHT22;1107;48.654;9.250;2023-03-21T10:06:15;23.00;86.10
2202;DHT22;1107;48.654;9.250;2023-03-21T10:08:45;22.40;81.00
2202;DHT22;1107;48.654;9.250;2023-03-21T10:11:18;22.00;72.00
2202;DHT22;1107;48.654;9.250;2023-03-21T10:13:50;22.30;74.60
2202;DHT22;1107;48.654;9.250;2023-03-21T10:16:22;22.90;78.20
2202;DHT22;1107;48.654;9.250;2023-03-21T10:18:51;23.50;83.80
2202;DHT22;1107;48.654;9.250;2023-03-21T10:21:21;23.80;80.00
2202;DHT22;1107;48.654;9.250;2023-03-21T10:23:50;22.80;66.50
2202;DHT22;1107;48.654;9.250;2023-03-21T10:26:21;22.10;57.70
2202;DHT22;1107;48.654;9.250;2023-03-21T10:28:48;21.50;50.70
2202;DHT22;1107;48.654;9.250;2023-03-21T10:31:17;21.80;49.70
2202;DHT22;1107;48.654;9.250;2023-03-21T10:33:47;21.80;50.30
2202;DHT22;1107;48.654;9.250;2023-03-21T10:36:16;21.40;46.10
2202;DHT22;1107;48.654;9.250;2023-03-21T10:38:47;21.80;48.20
2202;DHT22;1107;48.654;9.250;2023-03-21T10:41:14;21.50;46.10
2202;DHT22;1107;48.654;9.250;2023-03-21T10:43:43;21.10;42.30
2202;DHT22;1107;48.654;9.250;2023-03-21T10:46:12;21.00;41.80
2202;DHT22;1107;48.654;9.250;2023-03-21T10:48:43;20.40;39.40
2202;DHT22;1107;48.654;9.250;2023-03-21T10:51:14;20.70;40.90
2202;DHT22;1107;48.654;9.250;2023-03-21T10:53:46;20.50;41.80
2202;DHT22;1107;48.654;9.250;2023-03-21T10:56:16;20.70;43.10
2202;DHT22;1107;48.654;9.250;2023-03-21T10:58:46;20.60;42.60
2202;DHT22;1107;48.654;9.250;2023-03-21T11:01:26;20.70;42.90
2202;DHT22;1107;48.654;9.250;2023-03-21T11:03:57;20.90;45.50
2202;DHT22;1107;48.654;9.250;2023-03-21T11:06:30;21.20;47.90
2202;DHT22;1107;48.654;9.250;2023-03-21T11:09:02;20.70;44.70
2202;DHT22;1107;48.654;9.250;2023-03-21T11:11:34;20.30;41.20
2202;DHT22;1107;48.654;9.250;2023-03-21T11:14:05;19.40;38.30
2202;DHT22;1107;48.654;9.250;2023-03-21T11:16:37;19.90;39.70
2202;DHT22;1107;48.654;9.250;2023-03-21T11:19:13;20.10;40.40
2202;DHT22;1107;48.654;9.250;2023-03-21T11:21:41;20.30;43.50
2202;DHT22;1107;48.654;9.250;2023-03-21T11:24:12;19.70;35.50
2202;DHT22;1107;48.654;9.250;2023-03-21T11:26:42;20.00;37.00
2202;DHT22;1107;48.654;9.250;2023-03-21T11:29:25;19.40;35.00
2202;DHT22;1107;48.654;9.250;2023-03-21T11:31:57;19.10;34.70
2202;DHT22;1107;48.654;9.250;2023-03-21T11:34:29;19.10;37.80
2202;DHT22;1107;48.654;9.250;2023-03-21T11:36:59;18.90;36.00
2202;DHT22;1107;48.654;9.250;2023-03-21T11:39:31;19.10;38.50
2202;DHT22;1107;48.654;9.250;2023-03-21T11:41:58;19.00;37.60
2202;DHT22;1107;48.654;9.250;2023-03-21T11:44:30;19.30;39.60
2202;DHT22;1107;48.654;9.250;2023-03-21T11:46:57;19.40;42.50
2202;DHT22;1107;48.654;9.250;2023-03-21T11:49:26;19.30;38.10
2202;DHT22;1107;48.654;9.250;2023-03-21T11:52:10;19.30;39.80
2202;DHT22;1107;48.654;9.250;2023-03-21T11:54:54;19.20;36.70
2202;DHT22;1107;48.654;9.250;2023-03-21T11:57:32;18.40;35.00
2202;DHT22;1107;48.654;9.250;2023-03-21T12:00:09;18.10;34.50
2202;DHT22;1107;48.654;9.250;2023-03-21T12:03:04;17.90;35.80
2202;DHT22;1107;48.654;9.250;2023-03-21T12:05:34;17.90;36.60
2202;DHT22;1107;48.654;9.250;2023-03-21T12:08:06;17.70;37.10
2202;DHT22;1107;48.654;9.250;2023-03-21T12:10:42;17.60;39.80
2202;DHT22;1107;48.654;9.250;2023-03-21T12:13:26;17.70;43.70
2202;DHT22;1107;48.654;9.250;2023-03-21T12:16:09;17.90;45.50
2202;DHT22;1107;48.654;9.250;2023-03-21T12:18:51;18.00;48.60
2202;DHT22;1107;48.654;9.250;2023-03-21T12:21:28;18.20;48.70
2202;DHT22;1107;48.654;9.250;2023-03-21T12:24:02;18.20;47.30
2202;DHT22;1107;48.654;9.250;2023-03-21T12:26:35;18.10;49.30
2202;DHT22;1107;48.654;9.250;2023-03-21T12:29:20;18.10;51.50
2202;DHT22;1107;48.654;9.250;2023-03-21T12:32:02;18.00;52.50
2202;DHT22;1107;48.654;9.250;2023-03-21T12:34:46;17.90;52.80
2202;DHT22;1107;48.654;9.250;2023-03-21T12:37:22;17.90;56.30
2202;DHT22;1107;48.654;9.250;2023-03-21T12:39:53;17.50;52.70
2202;DHT22;1107;48.654;9.250;2023-03-21T12:45:33;17.40;53.30
2202;DHT22;1107;48.654;9.250;2023-03-21T12:48:12;17.60;56.80
2202;DHT22;1107;48.654;9.250;2023-03-21T12:50:40;17.60;57.90
2202;DHT22;1107;48.654;9.250;2023-03-21T12:53:17;17.70;58.30
2202;DHT22;1107;48.654;9.250;2023-03-21T12:55:45;17.70;57.30
2202;DHT22;1107;48.654;9.250;2023-03-21T12:58:15;17.90;60.00
2202;DHT22;1107;48.654;9.250;2023-03-21T13:00:46;18.20;61.00
2202;DHT22;1107;48.654;9.250;2023-03-21T13:03:18;18.40;65.60
2202;DHT22;1107;48.654;9.250;2023-03-21T13:05:50;18.70;68.40
2202;DHT22;1107;48.654;9.250;2023-03-21T13:08:23;18.90;69.70
2202;DHT22;1107;48.654;9.250;2023-03-21T13:10:51;19.30;69.10
2202;DHT22;1107;48.654;9.250;2023-03-21T13:13:24;19.60;74.50
2202;DHT22;1107;48.654;9.250;2023-03-21T13:16:03;20.00;72.40
2202;DHT22;1107;48.654;9.250;2023-03-21T13:18:42;20.20;94.20
2202;DHT22;1107;48.654;9.250;2023-03-21T13:21:14;19.90;66.90
2202;DHT22;1107;48.654;9.250;2023-03-21T13:23:54;19.70;63.20
2202;DHT22;1107;48.654;9.250;2023-03-21T13:26:32;19.90;58.60
2202;DHT22;1107;48.654;9.250;2023-03-21T13:28:59;20.20;60.60
2202;DHT22;1107;48.654;9.250;2023-03-21T13:31:26;20.20;59.70
2202;DHT22;1107;48.654;9.250;2023-03-21T13:33:58;20.30;59.80
2202;DHT22;1107;48.654;9.250;2023-03-21T13:36:27;20.40;58.00
2202;DHT22;1107;48.654;9.250;2023-03-21T13:38:59;20.50;61.00
2202;DHT22;1107;48.654;9.250;2023-03-21T13:41:31;20.10;56.30
2202;DHT22;1107;48.654;9.250;2023-03-21T13:44:07;19.80;56.60
2202;DHT22;1107;48.654;9.250;2023-03-21T13:46:41;20.20;59.50
2202;DHT22;1107;48.654;9.250;2023-03-21T13:49:14;20.60;62.00
2202;DHT22;1107;48.654;9.250;2023-03-21T13:51:52;20.70;59.60
2202;DHT22;1107;48.654;9.250;2023-03-21T13:54:26;20.90;61.00
2202;DHT22;1107;48.654;9.250;2023-03-21T13:56:56;20.50;54.60
2202;DHT22;1107;48.654;9.250;2023-03-21T13:59:40;19.80;49.10
2202;DHT22;1107;48.654;9.250;2023-03-21T14:02:23;19.20;46.20
2202;DHT22;1107;48.654;9.250;2023-03-21T14:04:58;18.90;45.10
2202;DHT22;1107;48.654;9.250;2023-03-21T14:07:27;18.60;46.10
2202;DHT22;1107;48.654;9.250;2023-03-21T14:09:58;18.50;46.90
2202;DHT22;1107;48.654;9.250;2023-03-21T14:12:28;18.30;47.20
2202;DHT22;1107;48.654;9.250;2023-03-21T14:14:58;18.20;46.50
2202;DHT22;1107;48.654;9.250;2023-03-21T14:17:28;17.90;46.10
2202;DHT22;1107;48.654;9.250;2023-03-21T14:20:00;17.70;45.30
2202;DHT22;1107;48.654;9.250;2023-03-21T14:22:34;17.70;43.10
2202;DHT22;1107;48.654;9.250;2023-03-21T14:25:02;17.80;46.50
2202;DHT22;1107;48.654;9.250;2023-03-21T14:27:32;17.70;44.90
2202;DHT22;1107;48.654;9.250;2023-03-21T14:30:00;17.70;47.00
2202;DHT22;1107;48.654;9.250;2023-03-21T14:32:29;17.80;47.00
2202;DHT22;1107;48.654;9.250;2023-03-21T14:34:59;17.90;47.70
2202;DHT22;1107;48.654;9.250;2023-03-21T14:37:29;18.00;41.50
2202;DHT22;1107;48.654;9.250;2023-03-21T14:39:58;18.10;38.80
2202;DHT22;1107;48.654;9.250;2023-03-21T14:42:25;18.20;35.60
2202;DHT22;1107;48.654;9.250;2023-03-21T14:44:52;18.10;32.30
2202;DHT22;1107;48.654;9.250;2023-03-21T14:47:25;18.10;30.80
2202;DHT22;1107;48.654;9.250;2023-03-21T14:49:53;18.20;29.90
2202;DHT22;1107;48.654;9.250;2023-03-21T14:52:23;18.10;29.10
2202;DHT22;1107;48.654;9.250;2023-03-21T14:54:52;18.10;30.00
2202;DHT22;1107;48.654;9.250;2023-03-21T14:57:22;18.00;29.10
2202;DHT22;1107;48.654;9.250;2023-03-21T14:59:52;17.90;27.30
2202;DHT22;1107;48.654;9.250;2023-03-21T15:02:23;17.80;27.80
2202;DHT22;1107;48.654;9.250;2023-03-21T15:04:52;17.80;29.70
2202;DHT22;1107;48.654;9.250;2023-03-21T15:07:27;17.80;28.10
2202;DHT22;1107;48.654;9.250;2023-03-21T15:09:55;17.70;26.90
2202;DHT22;1107;48.654;9.250;2023-03-21T15:12:23;17.60;26.90
2202;DHT22;1107;48.654;9.250;2023-03-21T15:14:50;17.60;25.80
2202;DHT22;1107;48.654;9.250;2023-03-21T15:17:18;17.60;26.20
2202;DHT22;1107;48.654;9.250;2023-03-21T15:19:45;17.70;26.90
2202;DHT22;1107;48.654;9.250;2023-03-21T15:22:16;17.90;28.60
2202;DHT22;1107;48.654;9.250;2023-03-21T15:24:49;18.20;29.90
2202;DHT22;1107;48.654;9.250;2023-03-21T15:27:18;18.30;29.80
2202;DHT22;1107;48.654;9.250;2023-03-21T15:29:49;18.40;30.60
2202;DHT22;1107;48.654;9.250;2023-03-21T15:32:20;18.50;27.80
2202;DHT22;1107;48.654;9.250;2023-03-21T15:34:48;18.50;27.20
2202;DHT22;1107;48.654;9.250;2023-03-21T15:37:21;18.40;26.00
2202;DHT22;1107;48.654;9.250;2023-03-21T15:39:50;18.30;24.30
2202;DHT22;1107;48.654;9.250;2023-03-21T15:42:27;18.30;24.60
2202;DHT22;1107;48.654;9.250;2023-03-21T15:44:56;18.20;22.10
2202;DHT22;1107;48.654;9.250;2023-03-21T15:47:41;18.00;20.60
2202;DHT22;1107;48.654;9.250;2023-03-21T15:50:15;17.80;20.80
2202;DHT22;1107;48.654;9.250;2023-03-21T15:52:42;17.70;21.60
2202;DHT22;1107;48.654;9.250;2023-03-21T15:55:20;17.60;24.60
2202;DHT22;1107;48.654;9.250;2023-03-21T15:57:51;17.50;18.30
2202;DHT22;1107;48.654;9.250;2023-03-21T16:00:26;17.40;17.80
2202;DHT22;1107;48.654;9.250;2023-03-21T16:02:57;17.20;19.50
2202;DHT22;1107;48.654;9.250;2023-03-21T16:05:26;17.10;20.40
2202;DHT22;1107;48.654;9.250;2023-03-21T16:07:58;17.00;20.50
2202;DHT22;1107;48.654;9.250;2023-03-21T16:10:31;16.90;18.60
2202;DHT22;1107;48.654;9.250;2023-03-21T16:12:58;16.80;18.00
2202;DHT22;1107;48.654;9.250;2023-03-21T16:15:26;16.80;19.30
2202;DHT22;1107;48.654;9.250;2023-03-21T16:17:54;16.70;21.20
2202;DHT22;1107;48.654;9.250;2023-03-21T16:20:23;16.60;26.70
2202;DHT22;1107;48.654;9.250;2023-03-21T16:22:50;16.50;33.50
2202;DHT22;1107;48.654;9.250;2023-03-21T16:25:18;16.20;42.30
2202;DHT22;1107;48.654;9.250;2023-03-21T16:27:47;16.10;48.90
2202;DHT22;1107;48.654;9.250;2023-03-21T16:30:16;15.90;52.00
2202;DHT22;1107;48.654;9.250;2023-03-21T16:32:44;15.70;56.70
2202;DHT22;1107;48.654;9.250;2023-03-21T16:35:11;15.50;66.30
2202;DHT22;1107;48.654;9.250;2023-03-21T16:37:38;15.40;78.60
2202;DHT22;1107;48.654;9.250;2023-03-21T16:40:16;15.20;91.30
2202;DHT22;1107;48.654;9.250;2023-03-21T16:42:44;15.20;98.60
2202;DHT22;1107;48.654;9.250;2023-03-21T16:45:12;15.00;99.90
2202;DHT22;1107;48.654;9.250;2023-03-21T16:47:39;15.00;99.90